createdAt,value
2022-09-04T00:00:50.000Z,93.7
2022-09-04T00:02:06.000Z,93.7
2022-09-04T00:03:22.000Z,93.6
2022-09-04T00:04:38.814Z,93.8
2022-09-04T00:05:54.000Z,94.2
2022-09-04T00:07:10.000Z,94.3
2022-09-04T00:08:26.000Z,94.4
2022-09-04T00:09:42.000Z,93.9
2022-09-04T00:10:58.000Z,93.8
2022-09-04T00:12:14.000Z,93.5
2022-09-04T00:13:30.000Z,93.4
2022-09-04T00:14:46.000Z,93.3
2022-09-04T00:16:01.000Z,93.3
2022-09-04T00:17:18.000Z,93.4
2022-09-04T00:18:34.000Z,93.5
2022-09-04T00:19:50.000Z,93.6
2022-09-04T00:21:06.000Z,93.5
2022-09-04T00:22:22.000Z,93.6
2022-09-04T00:23:38.000Z,93.6
2022-09-04T00:24:54.000Z,93.5
2022-09-04T00:26:11.000Z,93.4
2022-09-04T00:27:27.000Z,93.4
2022-09-04T00:28:43.000Z,93.3
2022-09-04T00:29:59.786Z,93.3
2022-09-04T00:31:15.000Z,93.2
2022-09-04T00:32:30.000Z,93.3
2022-09-04T00:33:47.000Z,93.3
2022-09-04T00:35:03.000Z,93.5
2022-09-04T00:36:19.000Z,93.4
2022-09-04T00:37:35.000Z,93.3
2022-09-04T00:38:51.000Z,93.3
2022-09-04T00:40:07.000Z,93.2
2022-09-04T00:41:23.000Z,93.1
2022-09-04T00:42:40.000Z,93.1
2022-09-04T00:43:56.000Z,93.2
2022-09-04T00:45:12.000Z,93.2
2022-09-04T00:46:28.000Z,93.3
2022-09-04T00:47:44.000Z,93.5
2022-09-04T00:49:00.000Z,93.4
2022-09-04T00:50:15.000Z,93.2
2022-09-04T00:51:32.311Z,93.2
2022-09-04T00:52:48.000Z,93
2022-09-04T00:54:04.000Z,92.9
2022-09-04T00:55:20.000Z,92.8
2022-09-04T00:56:36.000Z,92.7
2022-09-04T00:57:52.000Z,92.7
2022-09-04T00:59:09.190Z,92.9
2022-09-04T01:00:25.000Z,92.8
2022-09-04T01:01:41.000Z,92.7
2022-09-04T01:02:57.000Z,92.7
2022-09-04T01:04:13.000Z,92.7
2022-09-04T01:05:29.000Z,92.7
2022-09-04T01:06:44.000Z,92.5
2022-09-04T01:08:00.000Z,92.3
2022-09-04T01:09:17.000Z,92.2
2022-09-04T01:10:33.000Z,92.3
2022-09-04T01:11:49.000Z,92.4
2022-09-04T01:13:05.000Z,92.4
2022-09-04T01:14:21.000Z,92.5
2022-09-04T01:15:37.000Z,92.3
2022-09-04T01:16:54.000Z,92.3
2022-09-04T01:18:10.401Z,92.1
2022-09-04T01:19:26.000Z,92
2022-09-04T01:20:42.000Z,91.8
2022-09-04T01:21:58.000Z,91.6
2022-09-04T01:23:13.000Z,91.5
2022-09-04T01:24:30.137Z,91.5
2022-09-04T01:25:46.000Z,91.2
2022-09-04T01:27:02.000Z,91
2022-09-04T01:28:18.000Z,90.8
2022-09-04T01:29:34.000Z,90.7
2022-09-04T01:30:50.000Z,90.6
2022-09-04T01:32:06.000Z,90.7
2022-09-04T01:33:22.000Z,90.8
2022-09-04T01:34:39.000Z,90.7
2022-09-04T01:35:55.000Z,90.8
2022-09-04T01:37:11.000Z,90.9
2022-09-04T01:38:27.000Z,90.8
2022-09-04T01:39:42.000Z,91
2022-09-04T01:40:58.000Z,91.1
2022-09-04T01:42:14.000Z,91.1
2022-09-04T01:43:31.335Z,91.1
2022-09-04T01:44:47.000Z,91.4
2022-09-04T01:46:03.000Z,91.4
2022-09-04T01:47:19.766Z,91.4
2022-09-04T01:48:35.000Z,91.4
2022-09-04T01:49:51.000Z,91.2
2022-09-04T01:51:07.000Z,91.3
2022-09-04T01:52:24.345Z,91.3
2022-09-04T01:53:40.000Z,91.3
2022-09-04T01:54:56.644Z,91.3
2022-09-04T01:56:11.000Z,91.3
2022-09-04T01:57:27.000Z,91.4
2022-09-04T01:58:43.000Z,91.5
2022-09-04T02:00:00.239Z,91.6
2022-09-04T02:01:16.391Z,91.6
2022-09-04T02:02:32.524Z,91.7
2022-09-04T02:03:48.000Z,91.8
2022-09-04T02:05:04.000Z,92.2
2022-09-04T02:06:20.000Z,92.1
2022-09-04T02:07:36.000Z,92.2
2022-09-04T02:08:53.256Z,92.4
2022-09-04T02:10:09.000Z,92.3
2022-09-04T02:11:25.000Z,92.5
2022-09-04T02:12:40.000Z,92.5
2022-09-04T02:13:56.000Z,92.5
2022-09-04T02:15:12.000Z,92.6
2022-09-04T02:16:28.000Z,92.6
2022-09-04T02:17:45.000Z,92.8
2022-09-04T02:19:01.000Z,92.8
2022-09-04T02:20:17.000Z,92.8
2022-09-04T02:21:33.000Z,92.8
2022-09-04T02:22:49.000Z,92.9
2022-09-04T02:24:06.017Z,93
2022-09-04T02:25:21.000Z,93.1
2022-09-04T02:26:38.000Z,93.2
2022-09-04T02:27:54.000Z,93.2
2022-09-04T02:29:09.000Z,93.2
2022-09-04T02:30:25.000Z,93.2
2022-09-04T02:31:41.901Z,93.2
2022-09-04T02:32:57.000Z,93.3
2022-09-04T02:34:13.000Z,93.7
2022-09-04T02:35:30.000Z,93.8
2022-09-04T02:36:46.000Z,93.8
2022-09-04T02:38:02.000Z,94
2022-09-04T02:39:18.000Z,94.1
2022-09-04T02:40:34.000Z,94.1
2022-09-04T02:41:51.060Z,94.2
2022-09-04T02:43:06.000Z,94.6
2022-09-04T02:44:23.000Z,94.8
2022-09-04T02:45:38.000Z,94.9
2022-09-04T02:46:54.000Z,95.3
2022-09-04T02:48:10.000Z,95.3
2022-09-04T02:49:26.000Z,95.2
2022-09-04T02:50:42.000Z,95.5
2022-09-04T02:51:59.000Z,95.6
2022-09-04T02:53:15.000Z,95.6
2022-09-04T02:54:31.000Z,95.5
2022-09-04T02:55:47.000Z,95.6
2022-09-04T02:57:03.000Z,95.6
2022-09-04T02:58:19.000Z,95.6
2022-09-04T02:59:36.109Z,95.6
2022-09-04T03:00:52.000Z,95.4
2022-09-04T03:02:07.000Z,95.1
2022-09-04T03:03:23.558Z,94.8
2022-09-04T03:04:39.701Z,95
2022-09-04T03:05:55.000Z,94.8
2022-09-04T03:07:11.987Z,94.8
2022-09-04T03:08:27.000Z,94.7
2022-09-04T03:09:44.000Z,94.8
2022-09-04T03:11:00.000Z,95.1
2022-09-04T03:12:16.000Z,95.2
2022-09-04T03:13:32.718Z,95.1
2022-09-04T03:14:48.861Z,95.1
2022-09-04T03:16:05.007Z,95.2
2022-09-04T03:17:20.000Z,95
2022-09-04T03:18:36.000Z,95
2022-09-04T03:19:52.000Z,95.1
2022-09-04T03:21:08.603Z,95.2
2022-09-04T03:22:24.000Z,95.4
2022-09-04T03:23:40.000Z,95.5
2022-09-04T03:24:56.000Z,95.5
2022-09-04T03:26:12.000Z,95.5
2022-09-04T03:27:29.000Z,95.5
2022-09-04T03:28:45.000Z,95.5
2022-09-04T03:30:01.000Z,95.4
2022-09-04T03:31:17.000Z,95.7
2022-09-04T03:32:33.000Z,95.5
2022-09-04T03:33:49.000Z,95.4
2022-09-04T03:35:04.000Z,95.5
2022-09-04T03:36:21.000Z,95.6
2022-09-04T03:37:37.000Z,95.5
2022-09-04T03:38:53.000Z,95.3
2022-09-04T03:40:09.000Z,95.3
2022-09-04T03:41:25.948Z,95
2022-09-04T03:42:41.000Z,94.7
2022-09-04T03:43:58.000Z,94.7
2022-09-04T03:45:14.000Z,94.5
2022-09-04T03:46:30.000Z,94.5
2022-09-04T03:47:46.000Z,94.5
2022-09-04T03:49:02.000Z,94.5
2022-09-04T03:50:18.000Z,94.5
2022-09-04T03:51:33.000Z,94.8
2022-09-04T03:52:50.268Z,94.9
2022-09-04T03:54:06.000Z,94.7
2022-09-04T03:55:22.000Z,94.6
2022-09-04T03:56:38.701Z,94.5
2022-09-04T03:57:54.860Z,94.5
2022-09-04T03:59:10.000Z,94.6
2022-09-04T04:00:26.000Z,94.5
2022-09-04T04:01:43.000Z,94.7
2022-09-04T04:02:59.000Z,94.7
2022-09-04T04:04:15.000Z,94.7
2022-09-04T04:05:31.000Z,94.8
2022-09-04T04:06:47.000Z,95
2022-09-04T04:08:02.000Z,95
2022-09-04T04:09:18.000Z,95.1
2022-09-04T04:10:35.000Z,95.1
2022-09-04T04:11:51.000Z,95.1
2022-09-04T04:13:07.605Z,95
2022-09-04T04:14:23.000Z,94.9
2022-09-04T04:15:39.000Z,95
2022-09-04T04:16:56.045Z,95
2022-09-04T04:18:11.000Z,94.9
2022-09-04T04:19:28.000Z,94.8
2022-09-04T04:20:44.000Z,94.9
2022-09-04T04:22:00.621Z,94.8
2022-09-04T04:23:16.767Z,94.8
2022-09-04T04:24:31.000Z,94.8
2022-09-04T04:25:48.072Z,94.9
2022-09-04T04:27:03.000Z,95.1
2022-09-04T04:28:20.000Z,95.3
2022-09-04T04:29:36.000Z,95.4
2022-09-04T04:30:51.000Z,95.5
2022-09-04T04:32:07.000Z,95.6
2022-09-04T04:33:23.963Z,95.9
2022-09-04T04:34:39.000Z,95.8
2022-09-04T04:35:56.000Z,95.8
2022-09-04T04:37:12.000Z,95.7
2022-09-04T04:38:28.000Z,95.7
2022-09-04T04:39:44.000Z,95.7
2022-09-04T04:41:00.854Z,95.7
2022-09-04T04:42:16.000Z,95.5
2022-09-04T04:43:32.000Z,95.2
2022-09-04T04:44:49.000Z,95.3
2022-09-04T04:46:05.000Z,95
2022-09-04T04:47:20.000Z,95.1
2022-09-04T04:48:36.000Z,95.3
2022-09-04T04:49:52.000Z,95.1
2022-09-04T04:51:08.000Z,95
2022-09-04T04:52:24.000Z,94.8
2022-09-04T04:53:41.000Z,94.7
2022-09-04T04:54:57.000Z,94.6
2022-09-04T04:56:13.000Z,94.6
2022-09-04T04:57:29.000Z,94.6
2022-09-04T04:58:45.000Z,94.4
2022-09-04T05:00:01.000Z,94.4
2022-09-04T05:01:18.184Z,94.2
2022-09-04T05:02:34.327Z,94.1
2022-09-04T05:03:49.487Z,93.9
2022-09-04T05:05:05.000Z,93.8
2022-09-04T05:06:21.000Z,93.7
2022-09-04T05:07:37.930Z,93.4
2022-09-04T05:08:53.000Z,93.3
2022-09-04T05:10:09.000Z,93.1
2022-09-04T05:11:26.000Z,93
2022-09-04T05:12:42.000Z,93.1
2022-09-04T05:13:58.000Z,92.9
2022-09-04T05:15:14.000Z,92.7
2022-09-04T05:16:30.000Z,92.4
2022-09-04T05:17:46.000Z,92.4
2022-09-04T05:19:03.000Z,92.3
2022-09-04T05:20:18.000Z,92.2
2022-09-04T05:21:34.000Z,91.9
2022-09-04T05:22:50.000Z,91.8
2022-09-04T05:24:06.000Z,91.8
2022-09-04T05:25:22.971Z,91.6
2022-09-04T05:26:38.000Z,91.7
2022-09-04T05:27:55.000Z,91.5
2022-09-04T05:29:11.000Z,91.5
2022-09-04T05:30:27.000Z,91.5
2022-09-04T05:31:43.000Z,91.6
2022-09-04T05:32:59.840Z,91.5
2022-09-04T05:34:15.000Z,91.1
2022-09-04T05:35:31.000Z,91.2
2022-09-04T05:36:47.000Z,91.1
2022-09-04T05:38:03.000Z,91
2022-09-04T05:39:19.000Z,90.3
2022-09-04T05:40:35.000Z,90.2
2022-09-04T05:41:51.000Z,90.1
2022-09-04T05:43:07.000Z,90
2022-09-04T05:44:23.000Z,89.9
2022-09-04T05:45:40.000Z,89.7
2022-09-04T05:46:56.448Z,89.7
2022-09-04T05:48:12.000Z,89.6
2022-09-04T05:49:28.000Z,89.6
2022-09-04T05:50:44.000Z,89.1
2022-09-04T05:52:00.000Z,89
2022-09-04T05:53:15.000Z,89
2022-09-04T05:54:32.000Z,89
2022-09-04T05:55:48.000Z,89
2022-09-04T05:57:04.638Z,89.1
2022-09-04T05:58:20.000Z,88.9
2022-09-04T05:59:36.000Z,88.9
2022-09-04T06:00:52.000Z,88.9
2022-09-04T06:02:08.000Z,88.9
2022-09-04T06:03:25.000Z,88.7
2022-09-04T06:04:41.000Z,88.4
2022-09-04T06:05:57.000Z,88.1
2022-09-04T06:08:29.934Z,87.8
2022-09-04T06:09:44.000Z,87.7
2022-09-04T06:11:01.000Z,87.6
2022-09-04T06:12:17.382Z,87.6
2022-09-04T06:13:33.000Z,87.4
2022-09-04T06:14:49.670Z,87.4
2022-09-04T06:16:05.000Z,87.4
2022-09-04T06:17:21.000Z,87.5
2022-09-04T06:18:37.000Z,87.3
2022-09-04T06:19:54.000Z,87.3
2022-09-04T06:21:10.000Z,87.2
2022-09-04T06:22:26.000Z,86.9
2022-09-04T06:23:42.000Z,86.7
2022-09-04T06:24:58.000Z,86.5
2022-09-04T06:26:13.992Z,86.6
2022-09-04T06:27:29.000Z,86.7
2022-09-04T06:28:46.000Z,86.5
2022-09-04T06:30:02.000Z,86.4
2022-09-04T06:31:18.000Z,86
2022-09-04T06:32:34.000Z,86.1
2022-09-04T06:33:50.000Z,85.7
2022-09-04T06:35:07.009Z,85.4
2022-09-04T06:36:22.000Z,85
2022-09-04T06:37:39.000Z,84.8
2022-09-04T06:38:55.448Z,84.5
2022-09-04T06:40:11.000Z,84.8
2022-09-04T06:41:27.000Z,84.7
2022-09-04T06:42:42.000Z,84
2022-09-04T06:43:59.044Z,84.2
2022-09-04T06:45:14.000Z,83.8
2022-09-04T06:46:31.000Z,84
2022-09-04T06:47:47.000Z,83.7
2022-09-04T06:49:03.000Z,83.8
2022-09-04T06:50:19.000Z,84.2
2022-09-04T06:51:35.912Z,83.8
2022-09-04T06:52:52.062Z,83.7
2022-09-04T06:54:07.000Z,82.6
2022-09-04T06:55:24.000Z,82.6
2022-09-04T06:56:40.000Z,82.6
2022-09-04T06:57:56.000Z,82.4
2022-09-04T06:59:11.000Z,82.4
2022-09-04T07:00:27.000Z,81.9
2022-09-04T07:01:43.000Z,81.9
2022-09-04T07:03:00.238Z,82.2
2022-09-04T07:04:16.000Z,82.2
2022-09-04T07:05:32.000Z,80.7
2022-09-04T07:06:48.000Z,80.8
2022-09-04T07:08:04.000Z,81.2
2022-09-04T07:09:20.967Z,80.8
2022-09-04T07:10:36.000Z,80.7
2022-09-04T07:11:53.252Z,79.5
2022-09-04T07:13:09.000Z,79.8
2022-09-04T07:14:25.550Z,79.7
2022-09-04T07:15:40.000Z,79
2022-09-04T07:16:56.000Z,79.2
2022-09-04T07:18:12.000Z,78.9
2022-09-04T07:19:28.000Z,78.4
2022-09-04T07:20:45.285Z,77.3
2022-09-04T07:22:01.000Z,77.4
2022-09-04T07:23:17.000Z,77
2022-09-04T07:24:33.000Z,76.4
2022-09-04T07:25:49.000Z,76
2022-09-04T07:27:05.000Z,75.8
2022-09-04T07:28:21.000Z,75.5
2022-09-04T07:29:38.000Z,75.1
2022-09-04T07:30:54.000Z,74.4
2022-09-04T07:32:09.000Z,73.8
2022-09-04T07:33:25.752Z,73.1
2022-09-04T07:34:41.000Z,72.1
2022-09-04T07:35:57.000Z,73.1
2022-09-04T07:37:13.000Z,71.2
2022-09-04T07:38:30.000Z,71
2022-09-04T07:39:46.000Z,71.4
2022-09-04T07:41:02.000Z,71.4
2022-09-04T07:42:18.772Z,70.4
2022-09-04T07:43:34.000Z,70.2
2022-09-04T07:44:50.000Z,70.9
2022-09-04T07:46:07.210Z,71.3
2022-09-04T07:47:23.000Z,71.3
2022-09-04T07:48:38.000Z,70.1
2022-09-04T07:49:54.000Z,70.8
2022-09-04T07:51:10.804Z,69.6
2022-09-04T07:52:26.000Z,70
2022-09-04T07:53:42.000Z,70.5
2022-09-04T07:54:59.250Z,70.1
2022-09-04T07:56:15.000Z,70.9
2022-09-04T07:57:31.000Z,69.5
2022-09-04T07:58:47.678Z,69.2
2022-09-04T08:00:03.824Z,70.3
2022-09-04T08:01:19.000Z,70
2022-09-04T08:02:35.000Z,69.5
2022-09-04T08:03:52.000Z,69.7
2022-09-04T08:05:07.000Z,69.3
2022-09-04T08:06:23.000Z,70
2022-09-04T08:07:39.000Z,69.3
2022-09-04T08:08:55.000Z,69.7
2022-09-04T08:10:11.000Z,69.8
2022-09-04T08:11:27.000Z,70.2
2022-09-04T08:12:44.000Z,69.7
2022-09-04T08:14:00.000Z,70.7
2022-09-04T08:15:16.581Z,70.4
2022-09-04T08:16:32.000Z,70
2022-09-04T08:17:48.000Z,70.1
2022-09-04T08:19:04.000Z,70.2
2022-09-04T08:20:20.000Z,69
2022-09-04T08:21:36.000Z,69.5
2022-09-04T08:22:52.464Z,69.7
2022-09-04T08:24:08.000Z,70.2
2022-09-04T08:25:24.000Z,69.7
2022-09-04T08:26:40.000Z,69.5
2022-09-04T08:27:56.000Z,68.5
2022-09-04T08:29:12.000Z,68.9
2022-09-04T08:30:29.340Z,68.7
2022-09-04T08:31:45.000Z,68.9
2022-09-04T08:33:01.000Z,68.8
2022-09-04T08:34:17.000Z,69
2022-09-04T08:35:33.000Z,68.6
2022-09-04T08:36:49.000Z,68
2022-09-04T08:38:05.000Z,68.3
2022-09-04T08:39:21.000Z,69.3
2022-09-04T08:40:37.000Z,68.1
2022-09-04T08:41:53.000Z,68.3
2022-09-04T08:43:09.000Z,69.2
2022-09-04T08:44:25.000Z,68.8
2022-09-04T08:45:40.000Z,68.8
2022-09-04T08:46:57.271Z,68.7
2022-09-04T08:48:13.000Z,67.9
2022-09-04T08:49:29.000Z,68.3
2022-09-04T08:50:45.000Z,68.1
2022-09-04T08:52:01.000Z,68
2022-09-04T08:53:17.000Z,67.7
2022-09-04T08:54:34.142Z,66.4
2022-09-04T08:55:50.000Z,65.3
2022-09-04T08:57:06.000Z,64.5
2022-09-04T08:58:22.000Z,65.2
2022-09-04T08:59:38.000Z,64.3
2022-09-04T09:00:54.866Z,63.3
2022-09-04T09:02:09.000Z,62.9
2022-09-04T09:03:26.177Z,62.9
2022-09-04T09:04:42.320Z,63.3
2022-09-04T09:05:58.000Z,63.6
2022-09-04T09:07:14.606Z,62.7
2022-09-04T09:08:30.000Z,62.3
2022-09-04T09:09:46.000Z,61.9
2022-09-04T09:11:02.000Z,62.6
2022-09-04T09:12:18.000Z,62.6
2022-09-04T09:13:35.000Z,62.8
2022-09-04T09:14:51.000Z,60.6
2022-09-04T09:16:07.000Z,60.6
2022-09-04T09:17:23.540Z,61.1
2022-09-04T09:18:38.929Z,62.5
2022-09-04T09:19:54.000Z,62.9
2022-09-04T09:21:10.000Z,61.4
2022-09-04T09:22:27.000Z,60.3
2022-09-04T09:23:43.000Z,60
2022-09-04T09:24:59.000Z,60.5
2022-09-04T09:26:15.000Z,62.2
2022-09-04T09:27:31.000Z,59.9
2022-09-04T09:28:47.000Z,59.2
2022-09-04T09:30:04.000Z,58.8
2022-09-04T09:31:20.000Z,59.8
2022-09-04T09:32:36.000Z,58.4
2022-09-04T09:33:52.000Z,58.7
2022-09-04T09:35:07.000Z,59.1
2022-09-04T09:36:23.000Z,60.1
2022-09-04T09:37:39.000Z,60
2022-09-04T09:38:56.000Z,60.1
2022-09-04T09:40:12.000Z,60.5
2022-09-04T09:41:28.000Z,59.3
2022-09-04T09:42:44.000Z,58.6
2022-09-04T09:44:00.851Z,58.4
2022-09-04T09:45:16.000Z,59.1
2022-09-04T09:46:33.154Z,60.2
2022-09-04T09:47:49.286Z,60.1
2022-09-04T09:49:05.000Z,60.3
2022-09-04T09:50:21.000Z,60.4
2022-09-04T09:51:36.000Z,61.7
2022-09-04T09:52:52.000Z,61.2
2022-09-04T09:54:09.036Z,61.4
2022-09-04T09:55:24.000Z,61
2022-09-04T09:56:41.000Z,60.8
2022-09-04T09:57:57.000Z,60.6
2022-09-04T09:59:13.000Z,60.3
2022-09-04T10:00:29.000Z,60.5
2022-09-04T10:01:45.000Z,59.7
2022-09-04T10:03:01.000Z,60.7
2022-09-04T10:04:17.000Z,59.6
2022-09-04T10:05:34.000Z,60.9
2022-09-04T10:06:50.000Z,59.2
2022-09-04T10:08:05.000Z,58.5
2022-09-04T10:09:21.000Z,58
2022-09-04T10:10:37.718Z,58.8
2022-09-04T10:11:53.000Z,60.2
2022-09-04T10:13:10.000Z,60.2
2022-09-04T10:14:26.000Z,59.6
2022-09-04T10:15:42.000Z,59.2
2022-09-04T10:16:58.000Z,60
2022-09-04T10:18:14.809Z,58.8
2022-09-04T10:19:30.000Z,59
2022-09-04T10:20:46.000Z,58.2
2022-09-04T10:22:03.000Z,59.3
2022-09-04T10:23:19.000Z,59.1
2022-09-04T10:24:34.000Z,58.7
2022-09-04T10:25:50.000Z,59.7
2022-09-04T10:27:06.000Z,60.4
2022-09-04T10:28:22.000Z,60
2022-09-04T10:29:39.149Z,59.4
2022-09-04T10:30:55.000Z,58.3
2022-09-04T10:32:11.000Z,58.7
2022-09-04T10:33:27.000Z,59.7
2022-09-04T10:34:43.000Z,58.8
2022-09-04T10:35:59.000Z,58.6
2022-09-04T10:37:15.000Z,59.3
2022-09-04T10:38:31.000Z,58.8
2022-09-04T10:39:48.000Z,58.7
2022-09-04T10:41:03.000Z,58.5
2022-09-04T10:42:19.000Z,58.8
2022-09-04T10:43:35.000Z,58.6
2022-09-04T10:44:51.000Z,58.4
2022-09-04T10:46:07.000Z,58.6
2022-09-04T10:47:23.000Z,58.1
2022-09-04T10:48:40.000Z,58.2
2022-09-04T10:49:56.000Z,57.8
2022-09-04T10:51:12.000Z,59.5
2022-09-04T10:52:28.000Z,60
2022-09-04T10:53:44.000Z,59.2
2022-09-04T10:55:00.000Z,58.2
2022-09-04T10:56:16.000Z,57.7
2022-09-04T10:57:32.000Z,58.1
2022-09-04T10:58:48.000Z,57.9
2022-09-04T11:00:04.000Z,58.5
2022-09-04T11:01:20.000Z,58.7
2022-09-04T11:02:36.000Z,58.6
2022-09-04T11:03:52.000Z,59.3
2022-09-04T11:05:09.000Z,58.6
2022-09-04T11:06:25.000Z,59
2022-09-04T11:07:41.553Z,59.4
2022-09-04T11:08:57.000Z,60
2022-09-04T11:10:13.000Z,58.7
2022-09-04T11:11:29.000Z,58.6
2022-09-04T11:12:45.000Z,58.6
2022-09-04T11:14:01.000Z,58.6
2022-09-04T11:15:17.448Z,59.6
2022-09-04T11:16:33.000Z,60
2022-09-04T11:17:49.000Z,60.5
2022-09-04T11:19:05.000Z,59.6
2022-09-04T11:20:21.000Z,59.4
2022-09-04T11:21:37.000Z,61
2022-09-04T11:22:54.338Z,61.9
2022-09-04T11:24:10.000Z,62
2022-09-04T11:25:26.616Z,62.5
2022-09-04T11:26:42.769Z,61.2
2022-09-04T11:27:58.000Z,61.9
2022-09-04T11:29:14.000Z,60.9
2022-09-04T11:30:29.000Z,61.3
2022-09-04T11:31:46.000Z,60.9
2022-09-04T11:33:02.000Z,60.1
2022-09-04T11:34:18.000Z,61.1
2022-09-04T11:35:34.000Z,59.7
2022-09-04T11:36:50.000Z,59.4
2022-09-04T11:38:06.000Z,60
2022-09-04T11:39:23.000Z,59.1
2022-09-04T11:40:39.000Z,59.8
2022-09-04T11:41:55.000Z,60.3
2022-09-04T11:43:11.000Z,59.4
2022-09-04T11:44:27.834Z,59
2022-09-04T11:45:43.000Z,59.4
2022-09-04T11:46:58.000Z,59.7
2022-09-04T11:48:15.290Z,59.3
2022-09-04T11:49:31.000Z,59.5
2022-09-04T11:50:47.000Z,59.2
2022-09-04T11:52:03.000Z,58.8
2022-09-04T11:53:19.000Z,58.6
2022-09-04T11:54:35.000Z,59.5
2022-09-04T11:55:52.172Z,59.2
2022-09-04T11:57:08.000Z,59.1
2022-09-04T11:58:24.000Z,59.6
2022-09-04T11:59:40.000Z,58.9
2022-09-04T12:00:56.000Z,59
2022-09-04T12:02:12.902Z,59.1
2022-09-04T12:03:27.000Z,60
2022-09-04T12:04:43.000Z,60.3
2022-09-04T12:06:00.000Z,59.2
2022-09-04T12:07:16.000Z,58.7
2022-09-04T12:08:32.000Z,58.1
2022-09-04T12:09:48.000Z,57
2022-09-04T12:11:04.000Z,57.2
2022-09-04T12:12:20.000Z,57.4
2022-09-04T12:13:37.000Z,58.7
2022-09-04T12:14:53.000Z,58.5
2022-09-04T12:16:09.000Z,59
2022-09-04T12:17:25.000Z,59.8
2022-09-04T12:18:41.000Z,60.5
2022-09-04T12:19:56.000Z,59.7
2022-09-04T12:21:12.000Z,59.1
2022-09-04T12:22:29.000Z,59
2022-09-04T12:23:45.000Z,59.5
2022-09-04T12:25:01.000Z,59.9
2022-09-04T12:26:17.000Z,57.4
2022-09-04T12:27:33.000Z,57.8
2022-09-04T12:28:49.000Z,58.8
2022-09-04T12:30:05.000Z,59.5
2022-09-04T12:31:22.000Z,59.7
2022-09-04T12:32:38.000Z,58.2
2022-09-04T12:33:54.000Z,57.2
2022-09-04T12:35:10.000Z,56.9
2022-09-04T12:36:25.000Z,57.3
2022-09-04T12:37:41.000Z,57.5
2022-09-04T12:38:57.000Z,56.9
2022-09-04T12:40:14.000Z,57.1
2022-09-04T12:41:30.000Z,57.4
2022-09-04T12:42:46.000Z,57.6
2022-09-04T12:44:02.000Z,57.8
2022-09-04T12:45:18.000Z,57.8
2022-09-04T12:46:34.000Z,57.6
2022-09-04T12:47:51.000Z,57.8
2022-09-04T12:49:07.000Z,57.5
2022-09-04T12:50:23.000Z,57.5
2022-09-04T12:51:39.000Z,57.6
2022-09-04T12:52:54.000Z,58.5
2022-09-04T12:54:10.000Z,58.8
2022-09-04T12:55:27.143Z,57.9
2022-09-04T12:56:43.000Z,58.2
2022-09-04T12:57:59.000Z,58.6
2022-09-04T12:59:15.000Z,59.1
2022-09-04T13:00:30.000Z,58.9
2022-09-04T13:01:46.000Z,57.8
2022-09-04T13:03:02.000Z,57.5
2022-09-04T13:04:19.175Z,58
2022-09-04T13:05:35.000Z,58.2
2022-09-04T13:06:51.000Z,58.2
2022-09-04T13:08:07.000Z,58.1
2022-09-04T13:09:23.000Z,58.4
2022-09-04T13:10:39.928Z,58.3
2022-09-04T13:11:55.000Z,58.3
2022-09-04T13:13:11.000Z,58.1
2022-09-04T13:14:28.000Z,58.1
2022-09-04T13:15:44.000Z,58.5
2022-09-04T13:16:59.000Z,58.1
2022-09-04T13:18:15.000Z,57.8
2022-09-04T13:19:31.950Z,57.5
2022-09-04T13:20:47.000Z,57.1
2022-09-04T13:22:04.000Z,57.4
2022-09-04T13:23:20.000Z,58.3
2022-09-04T13:24:36.000Z,57.6
2022-09-04T13:25:52.000Z,58.4
2022-09-04T13:27:08.000Z,57.9
2022-09-04T13:28:24.000Z,57.8
2022-09-04T13:29:40.000Z,56.8
2022-09-04T13:30:57.000Z,57.7
2022-09-04T13:32:13.000Z,58
2022-09-04T13:33:28.000Z,58.5
2022-09-04T13:34:44.000Z,57.7
2022-09-04T13:36:00.000Z,57.5
2022-09-04T13:37:17.021Z,57.6
2022-09-04T13:38:32.000Z,57.7
2022-09-04T13:39:49.000Z,57.3
2022-09-04T13:41:05.000Z,56.9
2022-09-04T13:42:21.000Z,57.8
2022-09-04T13:43:37.000Z,57.9
2022-09-04T13:44:53.000Z,58.5
2022-09-04T13:46:09.000Z,58.4
2022-09-04T13:47:25.000Z,58.4
2022-09-04T13:48:42.000Z,58.5
2022-09-04T13:49:57.000Z,59.1
2022-09-04T13:51:13.000Z,58.5
2022-09-04T13:52:29.799Z,58.8
2022-09-04T13:53:45.000Z,58.7
2022-09-04T13:55:01.000Z,59
2022-09-04T13:56:18.000Z,58.6
2022-09-04T13:57:34.387Z,58.8
2022-09-04T13:58:50.000Z,58.5
2022-09-04T14:00:06.000Z,58.7
2022-09-04T14:01:22.000Z,58.4
2022-09-04T14:02:38.971Z,58.3
2022-09-04T14:03:54.000Z,58
2022-09-04T14:05:11.000Z,57.6
2022-09-04T14:06:26.000Z,58
2022-09-04T14:07:42.000Z,57.8
2022-09-04T14:08:58.000Z,57.8
2022-09-04T14:10:14.000Z,57.2
2022-09-04T14:11:30.000Z,57
2022-09-04T14:12:46.000Z,57.1
2022-09-04T14:14:03.000Z,57.9
2022-09-04T14:15:19.000Z,57.7
2022-09-04T14:16:35.604Z,58.3
2022-09-04T14:17:51.000Z,58.7
2022-09-04T14:19:07.000Z,58.8
2022-09-04T14:20:23.000Z,58.5
2022-09-04T14:21:39.000Z,58.5
2022-09-04T14:22:55.000Z,58.5
2022-09-04T14:24:11.000Z,58.5
2022-09-04T14:25:27.000Z,58.3
2022-09-04T14:26:43.000Z,58.4
2022-09-04T14:27:59.000Z,57.4
2022-09-04T14:29:15.000Z,57.9
2022-09-04T14:30:32.000Z,57.4
2022-09-04T14:31:48.000Z,57.5
2022-09-04T14:33:04.000Z,57.9
2022-09-04T14:34:20.000Z,56.7
2022-09-04T14:35:36.000Z,57.4
2022-09-04T14:36:52.000Z,57.6
2022-09-04T14:38:08.000Z,57.1
2022-09-04T14:39:24.269Z,57.1
2022-09-04T14:40:40.000Z,58.3
2022-09-04T14:41:56.000Z,58.8
2022-09-04T14:43:12.000Z,58.6
2022-09-04T14:44:28.000Z,58
2022-09-04T14:45:44.000Z,58.1
2022-09-04T14:47:00.000Z,58.5
2022-09-04T14:48:17.300Z,59.3
2022-09-04T14:49:33.000Z,60.5
2022-09-04T14:50:49.000Z,61.1
2022-09-04T14:52:05.744Z,61.9
2022-09-04T14:53:21.000Z,62.7
2022-09-04T14:54:37.000Z,61.9
2022-09-04T14:55:52.000Z,62.1
2022-09-04T14:57:09.000Z,62.3
2022-09-04T14:58:25.000Z,62
2022-09-04T14:59:41.000Z,62.4
2022-09-04T15:00:57.000Z,62.3
2022-09-04T15:02:13.000Z,62.4
2022-09-04T15:03:29.000Z,62.6
2022-09-04T15:04:45.000Z,63.1
2022-09-04T15:06:02.000Z,62.9
2022-09-04T15:07:18.521Z,62.8
2022-09-04T15:08:34.000Z,62.7
2022-09-04T15:09:50.000Z,63.2
2022-09-04T15:11:06.000Z,64.7
2022-09-04T15:12:21.000Z,65.5
2022-09-04T15:13:38.000Z,65.5
2022-09-04T15:14:54.000Z,65.4
2022-09-04T15:16:10.000Z,65.7
2022-09-04T15:17:26.000Z,66
2022-09-04T15:18:42.853Z,64.9
2022-09-04T15:19:58.000Z,65.1
2022-09-04T15:21:14.000Z,65.2
2022-09-04T15:22:31.000Z,65.1
2022-09-04T15:23:47.000Z,65.7
2022-09-04T15:25:03.000Z,66
2022-09-04T15:26:19.000Z,66.5
2022-09-04T15:27:35.000Z,66.7
2022-09-04T15:28:50.000Z,67.3
2022-09-04T15:30:06.000Z,67.9
2022-09-04T15:31:23.000Z,68.3
2022-09-04T15:32:39.000Z,68.7
2022-09-04T15:33:55.000Z,68.9
2022-09-04T15:35:11.000Z,69.2
2022-09-04T15:36:27.000Z,69.4
2022-09-04T15:37:43.000Z,69.8
2022-09-04T15:38:59.000Z,70.2
2022-09-04T15:40:16.000Z,70.2
2022-09-04T15:41:32.000Z,70.2
2022-09-04T15:42:48.652Z,70.2
2022-09-04T15:44:04.000Z,69.9
2022-09-04T15:45:19.000Z,70.2
2022-09-04T15:46:35.000Z,70
2022-09-04T15:47:52.000Z,70.5
2022-09-04T15:49:08.408Z,70.6
2022-09-04T15:50:24.000Z,70.5
2022-09-04T15:51:40.000Z,70.2
2022-09-04T15:52:56.000Z,71.1
2022-09-04T15:54:12.994Z,71.5
2022-09-04T15:55:28.000Z,72
2022-09-04T15:56:45.000Z,72.2
2022-09-04T15:58:01.000Z,72.8
2022-09-04T15:59:17.000Z,73.1
2022-09-04T16:00:33.733Z,73.2
2022-09-04T16:01:48.000Z,73.4
2022-09-04T16:03:04.000Z,73.8
2022-09-04T16:04:20.000Z,73.9
2022-09-04T16:05:37.000Z,74
2022-09-04T16:06:53.000Z,74.4
2022-09-04T16:08:09.000Z,74.6
2022-09-04T16:09:25.000Z,74.4
2022-09-04T16:10:41.000Z,74.4
2022-09-04T16:11:57.000Z,74.2
2022-09-04T16:13:14.212Z,74.4
2022-09-04T16:14:30.000Z,74.2
2022-09-04T16:15:46.000Z,74.3
2022-09-04T16:17:02.000Z,74.1
2022-09-04T16:18:17.000Z,74.1
2022-09-04T16:19:33.000Z,74.2
2022-09-04T16:20:49.000Z,74.3
2022-09-04T16:22:06.000Z,74.5
2022-09-04T16:23:22.000Z,74.8
2022-09-04T16:24:38.000Z,75.2
2022-09-04T16:25:54.000Z,75.5
2022-09-04T16:27:10.000Z,75.7
2022-09-04T16:28:26.991Z,76.2
2022-09-04T16:29:42.000Z,76.1
2022-09-04T16:30:59.000Z,76
2022-09-04T16:32:15.000Z,76.3
2022-09-04T16:33:31.000Z,76.4
2022-09-04T16:34:46.000Z,76.6
2022-09-04T16:36:02.882Z,76.8
2022-09-04T16:37:18.000Z,76.8
2022-09-04T16:38:34.000Z,76.5
2022-09-04T16:39:51.331Z,76.4
2022-09-04T16:41:07.000Z,76.4
2022-09-04T16:42:23.000Z,76.6
2022-09-04T16:43:39.000Z,76.1
2022-09-04T16:44:55.000Z,75.8
2022-09-04T16:46:11.000Z,76
2022-09-04T16:47:27.000Z,75.8
2022-09-04T16:48:44.000Z,75.9
2022-09-04T16:50:00.000Z,76.2
2022-09-04T16:51:15.000Z,76
2022-09-04T16:52:31.000Z,75.5
2022-09-04T16:53:47.000Z,75.6
2022-09-04T16:55:03.000Z,75.6
2022-09-04T16:56:20.254Z,76
2022-09-04T16:57:36.000Z,75.9
2022-09-04T16:58:52.000Z,76.3
2022-09-04T17:00:08.000Z,76.3